createdAt,value
2022-08-27T00:01:00.822Z,68.33
2022-08-27T00:03:30.780Z,68.34
2022-08-27T00:05:59.441Z,68.39
2022-08-27T00:08:28.236Z,68.78
2022-08-27T00:10:57.519Z,68.92
2022-08-27T00:13:26.202Z,69.03
2022-08-27T00:15:55.131Z,69.47
2022-08-27T00:18:23.978Z,69.52
2022-08-27T00:20:53.930Z,70.03
2022-08-27T00:23:22.800Z,70.23
2022-08-27T00:25:52.850Z,70.46
2022-08-27T00:28:21.770Z,70.67
2022-08-27T00:30:50.640Z,70.96
2022-08-27T00:33:19.495Z,71.25
2022-08-27T00:35:48.249Z,71.22
2022-08-27T00:38:20.460Z,71.94
2022-08-27T00:40:50.715Z,72.15
2022-08-27T00:43:24.076Z,72.16
2022-08-27T00:45:56.558Z,72.64
2022-08-27T00:48:31.368Z,72.74
2022-08-27T00:51:00.061Z,73.17
2022-08-27T00:53:34.420Z,73.56
2022-08-27T00:56:10.158Z,73.88
2022-08-27T00:58:43.578Z,74.46
2022-08-27T01:01:17.269Z,74.64
2022-08-27T01:03:50.813Z,74.75
2022-08-27T01:06:23.226Z,74.99
2022-08-27T01:09:01.684Z,75.32
2022-08-27T01:11:31.287Z,75.83
2022-08-27T01:14:01.394Z,75.99
2022-08-27T01:16:36.836Z,76.06
2022-08-27T01:19:17.440Z,76.40
2022-08-27T01:21:58.680Z,76.71
2022-08-27T01:24:41.588Z,76.70
2022-08-27T01:27:18.678Z,77.12
2022-08-27T01:29:48.022Z,77.28
2022-08-27T01:32:22.474Z,77.14
2022-08-27T01:34:52.468Z,77.43
2022-08-27T01:37:23.959Z,77.57
2022-08-27T01:39:59.148Z,77.90
2022-08-27T01:42:34.640Z,78.25
2022-08-27T01:45:08.452Z,78.54
2022-08-27T01:47:38.746Z,78.71
2022-08-27T01:50:13.748Z,79.17
2022-08-27T01:52:42.528Z,79.50
2022-08-27T01:55:18.508Z,79.67
2022-08-27T01:57:48.000Z,79.82
2022-08-27T02:00:22.135Z,80.00
2022-08-27T02:02:51.666Z,80.45
2022-08-27T02:05:21.828Z,80.79
2022-08-27T02:07:51.235Z,81.24
2022-08-27T02:10:26.233Z,81.47
2022-08-27T02:12:55.162Z,81.60
2022-08-27T02:15:25.332Z,81.71
2022-08-27T02:17:54.282Z,82.19
2022-08-27T02:20:24.211Z,82.76
2022-08-27T02:22:56.883Z,83.40
2022-08-27T02:25:29.040Z,83.88
2022-08-27T02:28:00.701Z,84.43
2022-08-27T02:30:32.839Z,84.48
2022-08-27T02:33:02.735Z,85.20
2022-08-27T02:35:34.991Z,85.27
2022-08-27T02:38:03.828Z,85.99
2022-08-27T02:40:34.798Z,86.26
2022-08-27T02:43:03.483Z,86.79
2022-08-27T02:45:32.213Z,86.30
2022-08-27T02:48:04.322Z,86.13
2022-08-27T02:50:33.719Z,87.37
2022-08-27T02:53:03.387Z,87.71
2022-08-27T02:55:33.204Z,87.99
2022-08-27T02:58:04.117Z,88.12
2022-08-27T03:00:33.037Z,87.57
2022-08-27T03:03:03.554Z,88.75
2022-08-27T03:05:32.237Z,88.33
2022-08-27T03:08:01.020Z,88.71
2022-08-27T03:10:29.915Z,88.91
2022-08-27T03:12:58.649Z,89.35
2022-08-27T03:15:29.189Z,89.57
2022-08-27T03:18:15.591Z,88.99
2022-08-27T03:20:48.079Z,90.12
2022-08-27T03:23:18.817Z,90.53
2022-08-27T03:25:52.951Z,90.95
2022-08-27T03:28:23.833Z,91.23
2022-08-27T03:30:58.577Z,91.26
2022-08-27T03:33:28.727Z,91.31
2022-08-27T03:35:57.573Z,90.38
2022-08-27T03:38:27.326Z,89.69
2022-08-27T03:40:56.049Z,90.46
2022-08-27T03:43:25.337Z,91.73
2022-08-27T03:46:00.758Z,92.31
2022-08-27T03:48:32.840Z,92.09
2022-08-27T03:51:06.699Z,92.38
2022-08-27T03:53:37.791Z,92.56
2022-08-27T03:56:08.307Z,93.40
2022-08-27T03:58:39.015Z,93.60
2022-08-27T04:01:10.529Z,93.84
2022-08-27T04:03:39.357Z,92.99
2022-08-27T04:06:08.829Z,92.81
2022-08-27T04:08:37.521Z,92.70
2022-08-27T04:11:08.734Z,92.63
2022-08-27T04:13:38.309Z,93.65
2022-08-27T04:16:08.916Z,93.66
2022-08-27T04:18:37.577Z,94.00
2022-08-27T04:21:11.282Z,93.82
2022-08-27T04:23:40.501Z,94.04
2022-08-27T04:26:11.061Z,93.64
2022-08-27T04:28:39.797Z,93.56
2022-08-27T04:31:11.975Z,93.00
2022-08-27T04:33:51.326Z,92.73
2022-08-27T04:36:21.914Z,91.40
2022-08-27T04:38:51.351Z,91.95
2022-08-27T04:41:25.111Z,92.14
2022-08-27T04:43:57.579Z,93.47
2022-08-27T04:46:30.976Z,93.42
2022-08-27T04:49:02.721Z,92.39
2022-08-27T04:51:36.804Z,92.66
2022-08-27T04:54:08.167Z,93.25
2022-08-27T04:56:38.096Z,92.70
2022-08-27T04:59:10.144Z,92.84
2022-08-27T05:01:42.387Z,93.11
2022-08-27T05:04:14.728Z,93.03
2022-08-27T05:06:45.443Z,92.59
2022-08-27T05:09:16.747Z,92.54
2022-08-27T05:11:47.681Z,91.57
2022-08-27T05:14:17.279Z,90.70
2022-08-27T05:16:47.957Z,91.34
2022-08-27T05:19:17.473Z,91.86
2022-08-27T05:21:49.552Z,92.45
2022-08-27T05:24:19.163Z,92.23
2022-08-27T05:26:49.974Z,91.96
2022-08-27T05:29:19.014Z,91.76
2022-08-27T05:31:49.168Z,91.25
2022-08-27T05:34:24.643Z,90.37
2022-08-27T05:36:56.266Z,89.69
2022-08-27T05:39:24.992Z,88.11
2022-08-27T05:41:58.539Z,88.30
2022-08-27T05:44:42.723Z,87.38
2022-08-27T05:47:13.027Z,87.04
2022-08-27T05:49:41.814Z,86.34
2022-08-27T05:52:12.317Z,86.16
2022-08-27T05:54:41.084Z,85.20
2022-08-27T05:57:10.144Z,84.14
2022-08-27T05:59:56.565Z,81.31
2022-08-27T06:02:27.210Z,80.16
2022-08-27T06:04:55.931Z,80.39
2022-08-27T06:07:24.615Z,76.25
2022-08-27T06:09:53.435Z,74.93
2022-08-27T06:12:28.292Z,74.81
2022-08-27T06:14:57.707Z,72.08
2022-08-27T06:17:28.003Z,72.88
2022-08-27T06:19:57.593Z,70.11
2022-08-27T06:22:26.561Z,68.59
2022-08-27T06:24:55.193Z,68.70
2022-08-27T06:27:23.953Z,69.40
2022-08-27T06:29:52.738Z,69.65
2022-08-27T06:32:21.478Z,67.88
2022-08-27T06:34:51.613Z,68.34
2022-08-27T06:37:20.405Z,65.20
2022-08-27T06:39:49.102Z,65.37
2022-08-27T06:42:18.260Z,65.22
2022-08-27T06:44:54.431Z,64.86
2022-08-27T06:47:23.010Z,63.53
2022-08-27T06:49:53.020Z,64.46
2022-08-27T06:52:21.788Z,61.65
2022-08-27T06:54:50.494Z,62.96
2022-08-27T06:57:19.217Z,61.33
2022-08-27T06:59:48.433Z,59.16
2022-08-27T07:02:17.128Z,59.21
2022-08-27T07:04:45.750Z,55.61
2022-08-27T07:07:31.177Z,56.06
2022-08-27T07:10:05.773Z,54.09
2022-08-27T07:12:34.614Z,53.46
2022-08-27T07:15:03.432Z,49.84
2022-08-27T07:17:33.384Z,49.73
2022-08-27T07:20:03.629Z,49.09
2022-08-27T07:22:33.872Z,45.85
2022-08-27T07:25:02.946Z,41.90
2022-08-27T07:27:31.753Z,41.50
2022-08-27T07:30:01.721Z,42.29
2022-08-27T07:32:31.920Z,39.17
2022-08-27T07:35:00.907Z,38.50
2022-08-27T07:37:35.061Z,38.21
2022-08-27T07:40:10.787Z,33.05
2022-08-27T07:42:58.817Z,36.23
2022-08-27T07:45:28.772Z,34.68
2022-08-27T07:47:57.746Z,33.01
2022-08-27T07:50:26.538Z,34.63
2022-08-27T07:52:55.304Z,32.79
2022-08-27T07:55:25.238Z,33.20
2022-08-27T07:57:54.681Z,33.97
2022-08-27T08:00:23.652Z,31.74
2022-08-27T08:02:52.362Z,32.54
2022-08-27T08:05:21.582Z,32.56
2022-08-27T08:07:50.747Z,31.54
2022-08-27T08:10:22.395Z,32.15
2022-08-27T08:12:52.739Z,31.59
2022-08-27T08:15:21.942Z,31.38
2022-08-27T08:17:51.361Z,31.30
2022-08-27T08:20:31.100Z,31.62
2022-08-27T08:23:09.888Z,29.10
2022-08-27T08:25:39.578Z,31.45
2022-08-27T08:28:11.815Z,30.91
2022-08-27T08:30:43.949Z,28.41
2022-08-27T08:33:13.527Z,28.84
2022-08-27T08:35:42.987Z,28.01
2022-08-27T08:38:11.972Z,29.56
2022-08-27T08:40:44.699Z,28.53
2022-08-27T08:43:30.284Z,28.36
2022-08-27T08:46:09.998Z,27.73
2022-08-27T08:48:48.200Z,25.90
2022-08-27T08:51:26.617Z,25.18
2022-08-27T08:54:04.517Z,25.81
2022-08-27T08:56:44.716Z,27.12
2022-08-27T08:59:25.417Z,28.71
2022-08-27T09:01:54.829Z,25.52
2022-08-27T09:04:27.143Z,22.38
2022-08-27T09:07:02.967Z,25.66
2022-08-27T09:09:39.284Z,25.21
2022-08-27T09:12:16.468Z,25.42
2022-08-27T09:14:53.146Z,25.02
2022-08-27T09:17:23.302Z,26.98
2022-08-27T09:19:52.548Z,23.88
2022-08-27T09:22:44.266Z,24.52
2022-08-27T09:25:21.535Z,26.02
2022-08-27T09:27:59.877Z,25.98
2022-08-27T09:30:42.085Z,25.79
2022-08-27T09:33:10.733Z,20.83
2022-08-27T09:35:44.908Z,23.39
2022-08-27T09:38:28.039Z,24.18
2022-08-27T09:41:02.302Z,25.28
2022-08-27T09:43:32.596Z,24.07
2022-08-27T09:46:08.434Z,24.12
2022-08-27T09:48:38.947Z,24.14
2022-08-27T09:51:13.769Z,25.04
2022-08-27T09:53:52.639Z,23.19
2022-08-27T09:56:31.473Z,23.71
2022-08-27T09:59:06.627Z,24.24
2022-08-27T10:01:50.560Z,24.57
2022-08-27T10:04:28.861Z,25.01
2022-08-27T10:06:57.896Z,23.45
2022-08-27T10:09:37.082Z,23.66
2022-08-27T10:12:17.824Z,22.13
2022-08-27T10:14:53.074Z,19.88
2022-08-27T10:17:39.039Z,21.56
2022-08-27T10:20:25.794Z,21.21
2022-08-27T10:23:23.632Z,24.38
2022-08-27T10:26:05.302Z,24.73
2022-08-27T10:28:58.578Z,23.45
2022-08-27T10:31:40.233Z,23.00
2022-08-27T10:34:31.486Z,23.13
2022-08-27T10:37:22.274Z,22.14
2022-08-27T10:40:11.838Z,22.46
2022-08-27T10:42:57.588Z,22.84
2022-08-27T10:45:43.410Z,23.62
2022-08-27T10:48:27.098Z,23.60
2022-08-27T10:51:09.342Z,23.91
2022-08-27T10:53:51.122Z,23.84
2022-08-27T10:56:30.634Z,23.09
2022-08-27T10:59:17.595Z,22.86
2022-08-27T11:02:02.622Z,24.06
2022-08-27T11:04:38.411Z,22.38
2022-08-27T11:07:17.514Z,22.69
2022-08-27T11:09:57.044Z,22.52
2022-08-27T11:12:34.451Z,22.59
2022-08-27T11:15:12.885Z,23.45
2022-08-27T11:17:50.575Z,23.32
2022-08-27T11:20:28.340Z,24.82
2022-08-27T11:23:06.024Z,23.91
2022-08-27T11:25:52.674Z,24.37
2022-08-27T11:28:30.071Z,24.86
2022-08-27T11:31:10.726Z,25.11
2022-08-27T11:33:49.212Z,25.15
2022-08-27T11:37:04.062Z,25.04
2022-08-27T11:40:05.074Z,25.40
2022-08-27T11:42:42.209Z,25.46
2022-08-27T11:45:19.952Z,25.26
2022-08-27T11:47:57.687Z,25.82
2022-08-27T11:50:30.788Z,25.38
2022-08-27T11:53:03.218Z,24.71
2022-08-27T11:55:37.195Z,26.91
2022-08-27T11:58:11.876Z,27.33
2022-08-27T12:00:43.789Z,27.44
2022-08-27T12:03:31.130Z,28.01
2022-08-27T12:06:26.732Z,27.87
2022-08-27T12:09:13.904Z,26.27
2022-08-27T12:12:02.029Z,27.68
2022-08-27T12:14:45.963Z,27.45
2022-08-27T12:17:30.518Z,27.54
2022-08-27T12:20:19.580Z,27.78
2022-08-27T12:23:35.639Z,27.46
2022-08-27T12:26:32.750Z,27.55
2022-08-27T12:29:29.320Z,26.16
2022-08-27T12:32:15.657Z,27.54
2022-08-27T12:34:59.638Z,27.74
2022-08-27T12:37:34.852Z,28.53
2022-08-27T12:40:19.853Z,27.74
2022-08-27T12:42:49.633Z,28.79
2022-08-27T12:45:26.886Z,26.12
2022-08-27T12:47:57.024Z,27.34
2022-08-27T12:50:30.630Z,28.20
2022-08-27T12:53:27.372Z,28.83
2022-08-27T12:56:13.480Z,28.92
2022-08-27T12:58:53.599Z,28.16
2022-08-27T13:01:50.194Z,28.85
2022-08-27T13:04:26.494Z,28.37
2022-08-27T13:06:55.772Z,29.00
2022-08-27T13:09:31.562Z,28.92
2022-08-27T13:12:04.576Z,29.36
2022-08-27T13:14:39.414Z,26.84
2022-08-27T13:17:15.918Z,27.43
2022-08-27T13:19:51.028Z,28.21
2022-08-27T13:22:26.183Z,27.21
2022-08-27T13:24:57.313Z,26.34
2022-08-27T13:27:31.121Z,25.62
2022-08-27T13:30:06.632Z,26.99
2022-08-27T13:32:39.292Z,26.58
2022-08-27T13:35:10.002Z,27.88
2022-08-27T13:37:46.853Z,28.34
2022-08-27T13:40:28.933Z,26.61
2022-08-27T13:43:05.040Z,26.96
2022-08-27T13:45:41.660Z,27.46
2022-08-27T13:48:14.321Z,26.44
2022-08-27T13:50:53.184Z,26.47
2022-08-27T13:53:46.216Z,28.23
2022-08-27T13:56:28.211Z,26.19
2022-08-27T13:58:57.162Z,26.93
2022-08-27T14:01:33.023Z,26.58
2022-08-27T14:04:06.924Z,25.28
2022-08-27T14:06:43.135Z,25.62
2022-08-27T14:09:18.918Z,25.46
2022-08-27T14:11:48.274Z,26.90
2022-08-27T14:14:19.795Z,25.58
2022-08-27T14:17:00.296Z,25.70
2022-08-27T14:19:36.197Z,25.26
2022-08-27T14:22:06.264Z,23.54
2022-08-27T14:24:35.172Z,24.77
2022-08-27T14:27:09.401Z,25.90
2022-08-27T14:29:38.815Z,26.15
2022-08-27T14:32:07.851Z,26.26
2022-08-27T14:34:38.427Z,28.41
2022-08-27T14:37:07.869Z,26.88
2022-08-27T14:39:36.693Z,27.09
2022-08-27T14:42:07.103Z,27.43
2022-08-27T14:44:39.139Z,28.71
2022-08-27T14:47:10.217Z,29.90
2022-08-27T14:49:45.103Z,27.40
2022-08-27T14:52:16.597Z,26.98
2022-08-27T14:54:45.896Z,28.13
2022-08-27T14:57:15.559Z,28.14
2022-08-27T14:59:44.418Z,28.59
2022-08-27T15:02:15.085Z,27.19
2022-08-27T15:04:47.867Z,29.20
2022-08-27T15:07:17.342Z,27.88
2022-08-27T15:09:47.322Z,27.91
2022-08-27T15:12:26.451Z,29.29
2022-08-27T15:14:56.347Z,28.95
2022-08-27T15:17:35.099Z,28.58
2022-08-27T15:20:13.647Z,28.56
2022-08-27T15:22:50.899Z,28.41
2022-08-27T15:25:21.613Z,27.83
2022-08-27T15:27:51.125Z,27.66
2022-08-27T15:30:27.194Z,28.33
2022-08-27T15:32:57.154Z,29.20
2022-08-27T15:35:28.821Z,28.71
2022-08-27T15:37:59.545Z,27.54
2022-08-27T15:40:32.760Z,30.21
2022-08-27T15:43:06.279Z,28.68
2022-08-27T15:45:36.775Z,29.96
2022-08-27T15:48:06.402Z,28.58
2022-08-27T15:50:36.483Z,27.81
2022-08-27T15:53:09.947Z,29.54
2022-08-27T15:55:43.379Z,30.17
2022-08-27T15:58:13.023Z,29.26
2022-08-27T16:00:46.475Z,32.68
2022-08-27T16:03:17.307Z,30.60
2022-08-27T16:05:48.485Z,30.08
2022-08-27T16:08:17.063Z,31.09
2022-08-27T16:10:45.677Z,33.45
2022-08-27T16:13:14.467Z,32.04
2022-08-27T16:15:43.943Z,31.48
2022-08-27T16:18:13.916Z,32.87
2022-08-27T16:20:43.455Z,33.90
2022-08-27T16:23:14.085Z,33.17
2022-08-27T16:25:42.822Z,33.23
2022-08-27T16:28:12.460Z,33.77
2022-08-27T16:30:41.969Z,34.89
2022-08-27T16:33:12.064Z,34.74
2022-08-27T16:35:42.485Z,33.31
2022-08-27T16:38:13.761Z,33.42
2022-08-27T16:40:47.905Z,34.47
2022-08-27T16:43:21.311Z,37.50
2022-08-27T16:45:51.975Z,38.97
2022-08-27T16:48:39.570Z,40.52
2022-08-27T16:51:14.135Z,40.66
2022-08-27T16:53:47.504Z,41.25
2022-08-27T16:56:18.103Z,42.38
2022-08-27T16:58:50.788Z,42.08
2022-08-27T17:01:23.371Z,42.77
2022-08-27T17:04:08.783Z,43.55
2022-08-27T17:06:42.327Z,44.33
2022-08-27T17:09:13.370Z,45.13
2022-08-27T17:11:44.519Z,45.86
2022-08-27T17:14:13.533Z,46.12
2022-08-27T17:16:43.372Z,46.97
2022-08-27T17:19:16.868Z,47.28
2022-08-27T17:21:47.014Z,48.44
2022-08-27T17:24:17.019Z,48.28
2022-08-27T17:26:45.837Z,49.06
2022-08-27T17:29:14.667Z,48.36
2022-08-27T17:31:44.648Z,47.69
2022-08-27T17:34:18.132Z,49.72
2022-08-27T17:36:47.233Z,49.51
2022-08-27T17:39:17.803Z,50.69
2022-08-27T17:41:50.835Z,51.37
2022-08-27T17:44:25.227Z,52.41
2022-08-27T17:46:56.619Z,53.00
2022-08-27T17:49:26.923Z,52.51
2022-08-27T17:52:00.406Z,53.05
2022-08-27T17:54:36.071Z,52.50
2022-08-27T17:57:11.680Z,52.66
2022-08-27T17:59:40.466Z,52.35
2022-08-27T18:02:11.161Z,52.51
2022-08-27T18:04:39.758Z,52.03
2022-08-27T18:07:08.537Z,50.76
2022-08-27T18:09:38.515Z,49.35
2022-08-27T18:12:08.240Z,48.73
2022-08-27T18:14:37.316Z,50.73
2022-08-27T18:17:06.076Z,49.52
2022-08-27T18:19:35.025Z,49.15
2022-08-27T18:22:06.455Z,50.58
2022-08-27T18:24:35.068Z,49.77
2022-08-27T18:27:05.445Z,48.95
2022-08-27T18:29:34.818Z,48.55
2022-08-27T18:32:05.056Z,49.77
2022-08-27T18:34:33.728Z,48.67
2022-08-27T18:37:02.541Z,49.43
2022-08-27T18:39:31.361Z,48.74
2022-08-27T18:42:01.282Z,48.99
2022-08-27T18:44:36.516Z,50.81
2022-08-27T18:47:05.904Z,52.06
2022-08-27T18:49:34.819Z,51.55
2022-08-27T18:52:03.889Z,51.52
2022-08-27T18:54:32.972Z,50.53
2022-08-27T18:57:01.886Z,50.13
2022-08-27T18:59:32.364Z,51.53
2022-08-27T19:02:02.216Z,49.96
2022-08-27T19:04:35.165Z,50.31
2022-08-27T19:07:03.853Z,51.37
2022-08-27T19:09:32.685Z,52.14
2022-08-27T19:12:01.237Z,50.29
2022-08-27T19:14:31.165Z,50.19
2022-08-27T19:17:03.538Z,47.22
2022-08-27T19:19:32.575Z,47.49
2022-08-27T19:22:06.760Z,47.26
2022-08-27T19:24:37.435Z,48.04
2022-08-27T19:27:09.303Z,47.81
2022-08-27T19:29:39.213Z,47.43
2022-08-27T19:32:07.996Z,46.97
2022-08-27T19:34:36.978Z,47.21
2022-08-27T19:37:09.409Z,47.52
2022-08-27T19:39:39.268Z,46.28
2022-08-27T19:42:08.403Z,46.72
2022-08-27T19:44:38.792Z,47.92
2022-08-27T19:47:11.942Z,49.08
2022-08-27T19:49:41.985Z,48.73
2022-08-27T19:52:10.774Z,49.62
2022-08-27T19:54:56.855Z,50.22
2022-08-27T19:57:28.130Z,51.50
2022-08-27T19:59:58.039Z,51.23
2022-08-27T20:02:27.418Z,51.98
2022-08-27T20:05:17.082Z,51.73
2022-08-27T20:07:44.891Z,53.13
2022-08-27T20:10:13.989Z,53.90
2022-08-27T20:12:45.065Z,54.25
2022-08-27T20:15:15.699Z,54.25
2022-08-27T20:17:45.098Z,53.79
2022-08-27T20:20:14.824Z,53.18
2022-08-27T20:22:44.215Z,53.31
2022-08-27T20:25:13.716Z,54.28
2022-08-27T20:27:43.684Z,54.63
2022-08-27T20:30:16.959Z,54.65
2022-08-27T20:32:47.216Z,52.97
2022-08-27T20:35:17.504Z,54.04
2022-08-27T20:37:47.099Z,53.96
2022-08-27T20:40:22.436Z,54.20
2022-08-27T20:42:51.239Z,53.77
2022-08-27T20:45:21.857Z,55.53
2022-08-27T20:47:52.720Z,54.42
2022-08-27T20:50:23.737Z,54.69
2022-08-27T20:52:53.173Z,55.91
2022-08-27T20:55:23.654Z,57.03
2022-08-27T20:58:10.285Z,55.94
2022-08-27T21:00:44.069Z,56.11
2022-08-27T21:03:15.787Z,57.04
2022-08-27T21:05:47.181Z,57.43
2022-08-27T21:08:19.367Z,57.28
2022-08-27T21:10:50.342Z,58.33
2022-08-27T21:13:21.747Z,58.57
2022-08-27T21:15:55.496Z,58.26
2022-08-27T21:18:29.759Z,57.53
2022-08-27T21:20:59.215Z,57.57
2022-08-27T21:23:29.168Z,58.98
2022-08-27T21:26:02.501Z,58.43
2022-08-27T21:28:33.979Z,59.01
2022-08-27T21:31:03.964Z,58.49
2022-08-27T21:33:34.195Z,57.87
2022-08-27T21:36:12.008Z,57.78
2022-08-27T21:38:42.023Z,58.20
2022-08-27T21:41:10.801Z,57.90
2022-08-27T21:43:39.414Z,58.72
2022-08-27T21:46:09.552Z,58.95
2022-08-27T21:48:39.449Z,58.55
2022-08-27T21:51:10.037Z,59.60
2022-08-27T21:53:39.406Z,59.89
2022-08-27T21:56:08.890Z,60.55
2022-08-27T21:58:38.579Z,59.96
2022-08-27T22:01:09.293Z,60.55
2022-08-27T22:03:38.277Z,60.90
2022-08-27T22:06:08.139Z,59.79
2022-08-27T22:08:36.928Z,60.71
2022-08-27T22:11:06.638Z,60.54
2022-08-27T22:13:35.247Z,60.84
2022-08-27T22:16:05.205Z,60.83
2022-08-27T22:18:35.907Z,61.26
2022-08-27T22:21:08.141Z,62.05
2022-08-27T22:23:36.776Z,63.15
2022-08-27T22:26:05.685Z,62.61
2022-08-27T22:28:34.443Z,61.83
2022-08-27T22:31:03.191Z,62.07
2022-08-27T22:33:31.800Z,62.52
2022-08-27T22:36:02.501Z,63.98
2022-08-27T22:38:31.081Z,63.25
2022-08-27T22:40:59.684Z,64.46
2022-08-27T22:43:30.043Z,64.30
2022-08-27T22:45:58.877Z,64.47
2022-08-27T22:48:27.487Z,64.75
2022-08-27T22:50:56.253Z,65.49
2022-08-27T22:53:26.152Z,64.69
2022-08-27T22:55:56.413Z,64.66
2022-08-27T22:58:25.265Z,64.92
2022-08-27T23:00:55.751Z,64.85
2022-08-27T23:03:24.479Z,65.48
2022-08-27T23:05:53.323Z,65.79
2022-08-27T23:08:23.090Z,64.92
2022-08-27T23:10:54.670Z,65.99
2022-08-27T23:13:23.597Z,65.09
2022-08-27T23:15:52.142Z,64.87
2022-08-27T23:18:20.742Z,64.96
2022-08-27T23:20:49.459Z,64.67
2022-08-27T23:23:20.244Z,66.16
2022-08-27T23:26:06.765Z,65.06
2022-08-27T23:28:36.928Z,65.92
2022-08-27T23:31:05.626Z,65.78
2022-08-27T23:33:34.253Z,65.95
2022-08-27T23:36:03.541Z,66.55
2022-08-27T23:38:32.145Z,66.02
2022-08-27T23:41:00.988Z,66.36
2022-08-27T23:43:30.227Z,65.71
2022-08-27T23:46:00.272Z,65.63
2022-08-27T23:48:28.970Z,65.55
2022-08-27T23:50:57.878Z,65.08
2022-08-27T23:53:26.678Z,64.97
2022-08-27T23:55:55.538Z,65.60
2022-08-27T23:58:24.374Z,65.19
